sensor_id;sensor_type;location;lat;lon;timestamp;pressure;altitude;pressure_sealevel;temperature;humidity
7022;BME280;3552;42.664;23.406;2022-12-16T00:00:07;51932.22;;;-141.28;100.00
7022;BME280;3552;42.664;23.406;2022-12-16T00:02:36;51924.38;;;-141.28;100.00
7022;BME280;3552;42.664;23.406;2022-12-16T00:05:04;51922.41;;;-141.28;100.00
7022;BME280;3552;42.664;23.406;2022-12-16T00:07:31;51920.44;;;-141.28;100.00
7022;BME280;3552;42.664;23.406;2022-12-16T00:09:59;51720.16;;;-141.28;100.00
7022;BME280;3552;42.664;23.406;2022-12-16T00:12:26;51910.63;;;-141.28;100.00
7022;BME280;3552;42.664;23.406;2022-12-16T00:14:53;51889.03;;;-141.28;100.00
7022;BME280;3552;42.664;23.406;2022-12-16T00:17:20;51869.38;;;-141.28;100.00
7022;BME280;3552;42.664;23.406;2022-12-16T00:19:50;51720.16;;;-141.28;100.00
7022;BME280;3552;42.664;23.406;2022-12-16T00:22:16;51794.75;;;-141.28;100.00
7022;BME280;3552;42.664;23.406;2022-12-16T00:24:45;51779.06;;;-141.28;100.00
7022;BME280;3552;42.664;23.406;2022-12-16T00:27:12;51753.53;;;-141.28;100.00
7022;BME280;3552;42.664;23.406;2022-12-16T00:29:38;51472.75;;;-141.28;100.00
7022;BME280;3552;42.664;23.406;2022-12-16T00:32:07;51661.25;;;-141.28;100.00
7022;BME280;3552;42.664;23.406;2022-12-16T00:34:34;51582.69;;;-141.28;100.00
7022;BME280;3552;42.664;23.406;2022-12-16T00:37:02;51531.66;;;-141.28;100.00
7022;BME280;3552;42.664;23.406;2022-12-16T00:39:30;51515.94;;;-141.28;100.00
7022;BME280;3552;42.664;23.406;2022-12-16T00:41:57;51449.19;;;-141.28;100.00
7022;BME280;3552;42.664;23.406;2022-12-16T00:44:25;51213.56;;;-141.28;100.00
7022;BME280;3552;42.664;23.406;2022-12-16T00:46:52;51466.84;;;-141.28;100.00
7022;BME280;3552;42.664;23.406;2022-12-16T00:49:19;51492.38;;;-141.28;100.00
7022;BME280;3552;42.664;23.406;2022-12-16T00:51:46;51496.31;;;-141.28;100.00
7022;BME280;3552;42.664;23.406;2022-12-16T00:54:15;51468.81;;;-141.28;100.00
7022;BME280;3552;42.664;23.406;2022-12-16T00:56:42;51313.72;;;-141.28;100.00
7022;BME280;3552;42.664;23.406;2022-12-16T00:59:08;51457.03;;;-141.28;100.00
7022;BME280;3552;42.664;23.406;2022-12-16T01:01:35;51462.94;;;-141.28;100.00
7022;BME280;3552;42.664;23.406;2022-12-16T01:04:03;51476.66;;;-141.28;100.00
7022;BME280;3552;42.664;23.406;2022-12-16T01:06:31;51441.31;;;-141.28;100.00
7022;BME280;3552;42.664;23.406;2022-12-16T01:08:58;51413.84;;;-141.28;100.00
7022;BME280;3552;42.664;23.406;2022-12-16T01:11:26;51417.78;;;-141.28;100.00
7022;BME280;3552;42.664;23.406;2022-12-16T01:13:53;51390.28;;;-141.28;100.00
7022;BME280;3552;42.664;23.406;2022-12-16T01:16:21;51394.22;;;-141.28;100.00
7022;BME280;3552;42.664;23.406;2022-12-16T01:18:48;51394.22;;;-141.28;100.00
7022;BME280;3552;42.664;23.406;2022-12-16T01:21:17;51347.09;;;-141.28;100.00
7022;BME280;3552;42.664;23.406;2022-12-16T01:23:46;51343.16;;;-141.28;100.00
7022;BME280;3552;42.664;23.406;2022-12-16T01:26:15;51201.81;;;-141.28;100.00
7022;BME280;3552;42.664;23.406;2022-12-16T01:28:46;51221.44;;;-141.28;100.00
7022;BME280;3552;42.664;23.406;2022-12-16T01:31:14;51164.50;;;-141.28;100.00
7022;BME280;3552;42.664;23.406;2022-12-16T01:33:41;51087.94;;;-141.28;100.00
7022;BME280;3552;42.664;23.406;2022-12-16T01:36:09;50970.13;;;-141.28;100.00
7022;BME280;3552;42.664;23.406;2022-12-16T01:38:36;50970.13;;;-141.28;100.00
7022;BME280;3552;42.664;23.406;2022-12-16T01:41:04;50940.69;;;-141.28;100.00
7022;BME280;3552;42.664;23.406;2022-12-16T01:43:33;50791.50;;;-141.28;100.00
7022;BME280;3552;42.664;23.406;2022-12-16T01:46:05;50754.19;;;-141.28;100.00
7022;BME280;3552;42.664;23.406;2022-12-16T01:48:39;50622.69;;;-141.28;100.00
7022;BME280;3552;42.664;23.406;2022-12-16T01:51:10;50434.25;;;-141.28;100.00
7022;BME280;3552;42.664;23.406;2022-12-16T01:53:41;50446.03;;;-141.28;100.00
7022;BME280;3552;42.664;23.406;2022-12-16T01:56:09;50400.88;;;-141.28;100.00
7022;BME280;3552;42.664;23.406;2022-12-16T01:58:38;50347.88;;;-141.28;100.00
7022;BME280;3552;42.664;23.406;2022-12-16T02:01:09;50234.03;;;-141.28;100.00
7022;BME280;3552;42.664;23.406;2022-12-16T02:03:36;50145.72;;;-141.28;100.00
7022;BME280;3552;42.664;23.406;2022-12-16T02:06:05;50035.81;;;-141.28;100.00
7022;BME280;3552;42.664;23.406;2022-12-16T02:08:32;49969.06;;;-141.28;100.00
7022;BME280;3552;42.664;23.406;2022-12-16T02:14:04;49657.03;;;-141.28;100.00
7022;BME280;3552;42.664;23.406;2022-12-16T02:16:44;49496.13;;;-141.28;100.00
7022;BME280;3552;42.664;23.406;2022-12-16T02:19:32;49380.34;;;-141.28;100.00
7022;BME280;3552;42.664;23.406;2022-12-16T02:22:16;49262.63;;;-141.28;100.00
7022;BME280;3552;42.664;23.406;2022-12-16T02:25:22;49160.59;;;-141.28;100.00
7022;BME280;3552;42.664;23.406;2022-12-16T02:28:02;49089.97;;;-141.28;100.00
7022;BME280;3552;42.664;23.406;2022-12-16T02:30:55;49038.94;;;-141.28;100.00
7022;BME280;3552;42.664;23.406;2022-12-16T02:33:49;48964.38;;;-141.28;100.00
7022;BME280;3552;42.664;23.406;2022-12-16T02:36:26;48964.38;;;-141.28;100.00
7022;BME280;3552;42.664;23.406;2022-12-16T02:39:01;48952.63;;;-141.28;100.00
7022;BME280;3552;42.664;23.406;2022-12-16T02:41:36;48925.16;;;-141.28;100.00
7022;BME280;3552;42.664;23.406;2022-12-16T02:44:09;48933.00;;;-141.28;100.00
7022;BME280;3552;42.664;23.406;2022-12-16T02:46:40;48897.69;;;-141.28;100.00
7022;BME280;3552;42.664;23.406;2022-12-16T02:49:37;48858.44;;;-141.28;100.00
7022;BME280;3552;42.664;23.406;2022-12-16T02:51:58;48736.81;;;-141.28;100.00
7022;BME280;3552;42.664;23.406;2022-12-16T02:54:26;48713.25;;;-141.28;100.00
7022;BME280;3552;42.664;23.406;2022-12-16T02:57:01;48697.56;;;-141.28;100.00
7022;BME280;3552;42.664;23.406;2022-12-16T02:59:37;48658.34;;;-141.28;100.00
7022;BME280;3552;42.664;23.406;2022-12-16T03:02:11;48615.19;;;-141.28;100.00
7022;BME280;3552;42.664;23.406;2022-12-16T03:04:45;48601.44;;;-141.28;100.00
7022;BME280;3552;42.664;23.406;2022-12-16T03:07:16;48548.47;;;-141.28;100.00
7022;BME280;3552;42.664;23.406;2022-12-16T03:09:45;48528.84;;;-141.28;100.00
7022;BME280;3552;42.664;23.406;2022-12-16T03:12:17;48497.47;;;-141.28;100.00
7022;BME280;3552;42.664;23.406;2022-12-16T03:14:50;48438.63;;;-141.28;100.00
7022;BME280;3552;42.664;23.406;2022-12-16T03:17:21;48368.00;;;-141.28;100.00
7022;BME280;3552;42.664;23.406;2022-12-16T03:19:54;48277.75;;;-141.28;100.00
7022;BME280;3552;42.664;23.406;2022-12-16T03:22:26;48152.22;;;-141.28;100.00
7022;BME280;3552;42.664;23.406;2022-12-16T03:24:54;48089.47;;;-141.28;100.00
7022;BME280;3552;42.664;23.406;2022-12-16T03:27:26;48022.75;;;-141.28;100.00
7022;BME280;3552;42.664;23.406;2022-12-16T03:29:58;47987.47;;;-141.28;100.00
7022;BME280;3552;42.664;23.406;2022-12-16T03:32:36;47971.78;;;-141.28;100.00
7022;BME280;3552;42.664;23.406;2022-12-16T03:35:08;47944.31;;;-141.28;100.00
7022;BME280;3552;42.664;23.406;2022-12-16T03:37:40;47948.22;;;-141.28;100.00
7022;BME280;3552;42.664;23.406;2022-12-16T03:40:10;47928.63;;;-141.28;100.00
7022;BME280;3552;42.664;23.406;2022-12-16T03:42:38;47932.53;;;-141.28;100.00
7022;BME280;3552;42.664;23.406;2022-12-16T03:45:10;47928.63;;;-141.28;100.00
7022;BME280;3552;42.664;23.406;2022-12-16T03:47:40;47932.53;;;-141.28;100.00
7022;BME280;3552;42.664;23.406;2022-12-16T03:50:07;47942.34;;;-141.28;100.00
7022;BME280;3552;42.664;23.406;2022-12-16T03:52:34;47940.38;;;-141.28;100.00
7022;BME280;3552;42.664;23.406;2022-12-16T03:55:01;47936.47;;;-141.28;100.00
7022;BME280;3552;42.664;23.406;2022-12-16T03:57:30;47932.53;;;-141.28;100.00
7022;BME280;3552;42.664;23.406;2022-12-16T03:59:57;47909.00;;;-141.28;100.00
7022;BME280;3552;42.664;23.406;2022-12-16T04:02:26;47907.03;;;-141.28;100.00
7022;BME280;3552;42.664;23.406;2022-12-16T04:04:55;47910.97;;;-141.28;100.00
7022;BME280;3552;42.664;23.406;2022-12-16T04:07:21;47905.09;;;-141.28;100.00
7022;BME280;3552;42.664;23.406;2022-12-16T04:09:50;47907.03;;;-141.28;100.00
7022;BME280;3552;42.664;23.406;2022-12-16T04:12:18;47910.97;;;-141.28;100.00
7022;BME280;3552;42.664;23.406;2022-12-16T04:15:05;47897.25;;;-141.28;100.00
7022;BME280;3552;42.664;23.406;2022-12-16T04:17:50;47893.31;;;-141.28;100.00
7022;BME280;3552;42.664;23.406;2022-12-16T04:20:37;47889.38;;;-141.28;100.00
7022;BME280;3552;42.664;23.406;2022-12-16T04:23:25;47893.31;;;-141.28;100.00
7022;BME280;3552;42.664;23.406;2022-12-16T04:26:11;47893.31;;;-141.28;100.00
7022;BME280;3552;42.664;23.406;2022-12-16T04:28:38;47889.38;;;-141.28;100.00
7022;BME280;3552;42.664;23.406;2022-12-16T04:31:05;47893.31;;;-141.28;100.00
7022;BME280;3552;42.664;23.406;2022-12-16T04:33:32;47905.09;;;-141.28;100.00
7022;BME280;3552;42.664;23.406;2022-12-16T04:36:19;47895.28;;;-141.28;100.00
7022;BME280;3552;42.664;23.406;2022-12-16T04:39:03;47901.16;;;-141.28;100.00
7022;BME280;3552;42.664;23.406;2022-12-16T04:41:51;47889.38;;;-141.28;100.00
7022;BME280;3552;42.664;23.406;2022-12-16T04:44:35;47893.31;;;-141.28;100.00
7022;BME280;3552;42.664;23.406;2022-12-16T04:47:20;47897.25;;;-141.28;100.00
7022;BME280;3552;42.664;23.406;2022-12-16T04:50:05;47897.25;;;-141.28;100.00
7022;BME280;3552;42.664;23.406;2022-12-16T04:52:55;47899.19;;;-141.28;100.00
7022;BME280;3552;42.664;23.406;2022-12-16T04:55:42;47899.19;;;-141.28;100.00
7022;BME280;3552;42.664;23.406;2022-12-16T04:58:26;47893.31;;;-141.28;100.00
7022;BME280;3552;42.664;23.406;2022-12-16T05:01:10;47891.34;;;-141.28;100.00
7022;BME280;3552;42.664;23.406;2022-12-16T05:03:54;47887.44;;;-141.28;100.00
7022;BME280;3552;42.664;23.406;2022-12-16T05:06:39;47883.50;;;-141.28;100.00
7022;BME280;3552;42.664;23.406;2022-12-16T05:09:24;47875.66;;;-141.28;100.00
7022;BME280;3552;42.664;23.406;2022-12-16T05:12:09;47881.53;;;-141.28;100.00
7022;BME280;3552;42.664;23.406;2022-12-16T05:15:06;47871.75;;;-141.28;100.00
7022;BME280;3552;42.664;23.406;2022-12-16T05:17:50;47881.53;;;-141.28;100.00
7022;BME280;3552;42.664;23.406;2022-12-16T05:20:34;47881.53;;;-141.28;100.00
7022;BME280;3552;42.664;23.406;2022-12-16T05:23:19;47881.53;;;-141.28;100.00
7022;BME280;3552;42.664;23.406;2022-12-16T05:26:05;47885.47;;;-141.28;100.00
7022;BME280;3552;42.664;23.406;2022-12-16T05:28:49;47889.38;;;-141.28;100.00
7022;BME280;3552;42.664;23.406;2022-12-16T05:31:33;47901.16;;;-141.28;100.00
7022;BME280;3552;42.664;23.406;2022-12-16T05:34:23;47893.31;;;-141.28;100.00
7022;BME280;3552;42.664;23.406;2022-12-16T05:37:07;47912.94;;;-141.28;100.00
7022;BME280;3552;42.664;23.406;2022-12-16T05:39:51;47912.94;;;-141.28;100.00
7022;BME280;3552;42.664;23.406;2022-12-16T05:42:38;47899.19;;;-141.28;100.00
7022;BME280;3552;42.664;23.406;2022-12-16T05:45:22;47899.19;;;-141.28;100.00
7022;BME280;3552;42.664;23.406;2022-12-16T05:48:07;47877.63;;;-141.28;100.00
7022;BME280;3552;42.664;23.406;2022-12-16T05:50:52;47873.69;;;-141.28;100.00
7022;BME280;3552;42.664;23.406;2022-12-16T05:53:37;47871.75;;;-141.28;100.00
7022;BME280;3552;42.664;23.406;2022-12-16T05:56:21;47869.78;;;-141.28;100.00
7022;BME280;3552;42.664;23.406;2022-12-16T05:59:06;47863.91;;;-141.28;100.00
7022;BME280;3552;42.664;23.406;2022-12-16T06:01:51;47854.09;;;-141.28;100.00
7022;BME280;3552;42.664;23.406;2022-12-16T06:04:43;47850.16;;;-141.28;100.00
7022;BME280;3552;42.664;23.406;2022-12-16T06:07:27;47846.25;;;-141.28;100.00
7022;BME280;3552;42.664;23.406;2022-12-16T06:10:12;47844.28;;;-141.28;100.00
7022;BME280;3552;42.664;23.406;2022-12-16T06:12:56;47852.13;;;-141.28;100.00
7022;BME280;3552;42.664;23.406;2022-12-16T06:15:42;47854.09;;;-141.28;100.00
7022;BME280;3552;42.664;23.406;2022-12-16T06:18:28;47854.09;;;-141.28;100.00
7022;BME280;3552;42.664;23.406;2022-12-16T06:21:11;47854.09;;;-141.28;100.00
7022;BME280;3552;42.664;23.406;2022-12-16T06:23:55;47871.75;;;-141.28;100.00
7022;BME280;3552;42.664;23.406;2022-12-16T06:26:36;47873.69;;;-141.28;100.00
7022;BME280;3552;42.664;23.406;2022-12-16T06:29:20;47871.75;;;-141.28;100.00
7022;BME280;3552;42.664;23.406;2022-12-16T06:32:07;47879.59;;;-141.28;100.00
7022;BME280;3552;42.664;23.406;2022-12-16T06:34:51;47881.53;;;-141.28;100.00
7022;BME280;3552;42.664;23.406;2022-12-16T06:37:35;47889.38;;;-141.28;100.00
7022;BME280;3552;42.664;23.406;2022-12-16T06:40:19;47897.25;;;-141.28;100.00
7022;BME280;3552;42.664;23.406;2022-12-16T06:43:03;47901.16;;;-141.28;100.00
7022;BME280;3552;42.664;23.406;2022-12-16T06:45:48;47901.16;;;-141.28;100.00
7022;BME280;3552;42.664;23.406;2022-12-16T06:48:34;47912.94;;;-141.28;100.00
7022;BME280;3552;42.664;23.406;2022-12-16T06:51:18;47909.00;;;-141.28;100.00
7022;BME280;3552;42.664;23.406;2022-12-16T06:54:01;47903.13;;;-141.28;100.00
7022;BME280;3552;42.664;23.406;2022-12-16T06:56:45;47918.81;;;-141.28;100.00
7022;BME280;3552;42.664;23.406;2022-12-16T06:59:29;47916.84;;;-141.28;100.00
7022;BME280;3552;42.664;23.406;2022-12-16T07:02:13;47907.03;;;-141.28;100.00
7022;BME280;3552;42.664;23.406;2022-12-16T07:05:00;47914.88;;;-141.28;100.00
7022;BME280;3552;42.664;23.406;2022-12-16T07:07:48;47903.13;;;-141.28;100.00
7022;BME280;3552;42.664;23.406;2022-12-16T07:10:32;47907.03;;;-141.28;100.00
7022;BME280;3552;42.664;23.406;2022-12-16T07:13:17;47905.09;;;-141.28;100.00
7022;BME280;3552;42.664;23.406;2022-12-16T07:16:01;47909.00;;;-141.28;100.00
7022;BME280;3552;42.664;23.406;2022-12-16T07:18:42;47912.94;;;-141.28;100.00
7022;BME280;3552;42.664;23.406;2022-12-16T07:21:28;47920.78;;;-141.28;100.00
7022;BME280;3552;42.664;23.406;2022-12-16T07:24:13;47924.69;;;-141.28;100.00
7022;BME280;3552;42.664;23.406;2022-12-16T07:26:57;47928.63;;;-141.28;100.00
7022;BME280;3552;42.664;23.406;2022-12-16T07:29:41;47928.63;;;-141.28;100.00
7022;BME280;3552;42.664;23.406;2022-12-16T07:32:25;47936.47;;;-141.28;100.00
7022;BME280;3552;42.664;23.406;2022-12-16T07:35:09;47930.59;;;-141.28;100.00
7022;BME280;3552;42.664;23.406;2022-12-16T07:37:54;47932.53;;;-141.28;100.00
7022;BME280;3552;42.664;23.406;2022-12-16T07:40:38;47936.47;;;-141.28;100.00
7022;BME280;3552;42.664;23.406;2022-12-16T07:43:23;47944.31;;;-141.28;100.00
7022;BME280;3552;42.664;23.406;2022-12-16T07:46:07;47934.50;;;-141.28;100.00
7022;BME280;3552;42.664;23.406;2022-12-16T07:48:50;47936.47;;;-141.28;100.00
7022;BME280;3552;42.664;23.406;2022-12-16T07:51:36;47932.53;;;-141.28;100.00
7022;BME280;3552;42.664;23.406;2022-12-16T07:54:22;47934.50;;;-141.28;100.00
7022;BME280;3552;42.664;23.406;2022-12-16T07:57:06;47948.22;;;-141.28;100.00
7022;BME280;3552;42.664;23.406;2022-12-16T07:59:50;47944.31;;;-141.28;100.00
7022;BME280;3552;42.664;23.406;2022-12-16T08:02:35;47948.22;;;-141.28;100.00
7022;BME280;3552;42.664;23.406;2022-12-16T08:05:19;47948.22;;;-141.28;100.00
7022;BME280;3552;42.664;23.406;2022-12-16T08:08:03;47958.03;;;-141.28;100.00
7022;BME280;3552;42.664;23.406;2022-12-16T08:10:49;47965.88;;;-141.28;100.00
7022;BME280;3552;42.664;23.406;2022-12-16T08:13:33;47975.69;;;-141.28;100.00
7022;BME280;3552;42.664;23.406;2022-12-16T08:16:17;47987.47;;;-141.28;100.00
7022;BME280;3552;42.664;23.406;2022-12-16T08:19:06;47991.38;;;-141.28;100.00
7022;BME280;3552;42.664;23.406;2022-12-16T08:21:50;48026.69;;;-141.28;100.00
7022;BME280;3552;42.664;23.406;2022-12-16T08:24:34;48018.84;;;-141.28;100.00
7022;BME280;3552;42.664;23.406;2022-12-16T08:27:20;48022.75;;;-141.28;100.00
7022;BME280;3552;42.664;23.406;2022-12-16T08:30:05;48038.47;;;-141.28;100.00
7022;BME280;3552;42.664;23.406;2022-12-16T08:32:50;48062.00;;;-141.28;100.00
7022;BME280;3552;42.664;23.406;2022-12-16T08:35:34;48062.00;;;-141.28;100.00
7022;BME280;3552;42.664;23.406;2022-12-16T08:38:18;48077.69;;;-141.28;100.00
7022;BME280;3552;42.664;23.406;2022-12-16T08:41:01;48081.59;;;-141.28;100.00
7022;BME280;3552;42.664;23.406;2022-12-16T08:43:47;48081.59;;;-141.28;100.00
7022;BME280;3552;42.664;23.406;2022-12-16T08:46:31;48103.19;;;-141.28;100.00
7022;BME280;3552;42.664;23.406;2022-12-16T08:49:15;48089.47;;;-141.28;100.00
7022;BME280;3552;42.664;23.406;2022-12-16T08:51:59;48114.97;;;-141.28;100.00
7022;BME280;3552;42.664;23.406;2022-12-16T08:54:43;48109.06;;;-141.28;100.00
7022;BME280;3552;42.664;23.406;2022-12-16T08:57:27;48105.16;;;-141.28;100.00
7022;BME280;3552;42.664;23.406;2022-12-16T09:00:14;48113.00;;;-141.28;100.00
7022;BME280;3552;42.664;23.406;2022-12-16T09:02:58;48105.16;;;-141.28;100.00
7022;BME280;3552;42.664;23.406;2022-12-16T09:05:43;48105.16;;;-141.28;100.00
7022;BME280;3552;42.664;23.406;2022-12-16T09:08:28;48171.84;;;-141.28;100.00
7022;BME280;3552;42.664;23.406;2022-12-16T09:11:12;48179.69;;;-141.28;100.00
7022;BME280;3552;42.664;23.406;2022-12-16T09:13:56;48164.00;;;-141.28;100.00
7022;BME280;3552;42.664;23.406;2022-12-16T09:16:43;48195.38;;;-141.28;100.00
7022;BME280;3552;42.664;23.406;2022-12-16T09:19:27;48165.97;;;-141.28;100.00
7022;BME280;3552;42.664;23.406;2022-12-16T09:22:11;48215.00;;;-141.28;100.00
7022;BME280;3552;42.664;23.406;2022-12-16T09:24:56;48191.44;;;-141.28;100.00
7022;BME280;3552;42.664;23.406;2022-12-16T09:27:40;48242.47;;;-141.28;100.00
7022;BME280;3552;42.664;23.406;2022-12-16T09:30:24;48216.94;;;-141.28;100.00
7022;BME280;3552;42.664;23.406;2022-12-16T09:33:10;48215.00;;;-141.28;100.00
7022;BME280;3552;42.664;23.406;2022-12-16T09:36:06;48195.38;;;-141.28;100.00
7022;BME280;3552;42.664;23.406;2022-12-16T09:38:58;48183.59;;;-141.28;100.00
7022;BME280;3552;42.664;23.406;2022-12-16T09:41:43;48183.59;;;-141.28;100.00
7022;BME280;3552;42.664;23.406;2022-12-16T09:44:37;48209.09;;;-141.28;100.00
7022;BME280;3552;42.664;23.406;2022-12-16T09:47:31;48203.22;;;-141.28;100.00
7022;BME280;3552;42.664;23.406;2022-12-16T09:50:24;48191.44;;;-141.28;100.00
7022;BME280;3552;42.664;23.406;2022-12-16T09:53:10;48250.31;;;-141.28;100.00
7022;BME280;3552;42.664;23.406;2022-12-16T09:55:56;48264.03;;;-141.28;100.00
7022;BME280;3552;42.664;23.406;2022-12-16T09:58:45;48258.16;;;-141.28;100.00
7022;BME280;3552;42.664;23.406;2022-12-16T10:01:35;48307.19;;;-141.28;100.00
7022;BME280;3552;42.664;23.406;2022-12-16T10:04:23;48301.31;;;-141.28;100.00
7022;BME280;3552;42.664;23.406;2022-12-16T10:07:14;48287.56;;;-141.28;100.00
7022;BME280;3552;42.664;23.406;2022-12-16T10:10:05;48328.75;;;-141.28;100.00
7022;BME280;3552;42.664;23.406;2022-12-16T10:12:58;48328.75;;;-141.28;100.00
7022;BME280;3552;42.664;23.406;2022-12-16T10:15:50;48344.47;;;-141.28;100.00
7022;BME280;3552;42.664;23.406;2022-12-16T10:18:46;48334.66;;;-141.28;100.00
7022;BME280;3552;42.664;23.406;2022-12-16T10:21:38;48317.00;;;-141.28;100.00
7022;BME280;3552;42.664;23.406;2022-12-16T10:24:34;48352.31;;;-141.28;100.00
7022;BME280;3552;42.664;23.406;2022-12-16T10:27:30;48426.84;;;-141.28;100.00
7022;BME280;3552;42.664;23.406;2022-12-16T10:30:16;48450.38;;;-141.28;100.00
7022;BME280;3552;42.664;23.406;2022-12-16T10:33:01;48838.81;;;-141.28;100.00
7022;BME280;3552;42.664;23.406;2022-12-16T10:35:52;49478.47;;;-141.28;100.00
7022;BME280;3552;42.664;23.406;2022-12-16T10:38:39;49690.41;;;-141.28;100.00
7022;BME280;3552;42.664;23.406;2022-12-16T10:41:28;49757.13;;;-141.28;100.00
7022;BME280;3552;42.664;23.406;2022-12-16T10:44:21;50557.91;;;-141.28;100.00
7022;BME280;3552;42.664;23.406;2022-12-16T10:47:05;50905.34;;;-141.28;100.00
7022;BME280;3552;42.664;23.406;2022-12-16T10:49:53;50846.47;;;-141.28;100.00
7022;BME280;3552;42.664;23.406;2022-12-16T10:52:43;51209.66;;;-141.28;100.00
7022;BME280;3552;42.664;23.406;2022-12-16T10:55:41;51356.91;;;-141.28;100.00
7022;BME280;3552;42.664;23.406;2022-12-16T10:58:36;51421.69;;;-141.28;100.00
7022;BME280;3552;42.664;23.406;2022-12-16T11:01:24;51449.19;;;-141.28;100.00
7022;BME280;3552;42.664;23.406;2022-12-16T11:04:32;51576.81;;;-141.28;100.00
7022;BME280;3552;42.664;23.406;2022-12-16T11:07:25;51843.84;;;-141.28;100.00
7022;BME280;3552;42.664;23.406;2022-12-16T11:10:25;51944.00;;;-141.28;100.00
7022;BME280;3552;42.664;23.406;2022-12-16T11:13:16;52148.25;;;-141.28;100.00
7022;BME280;3552;42.664;23.406;2022-12-16T11:16:14;52307.31;;;-141.28;100.00
7022;BME280;3552;42.664;23.406;2022-12-16T11:18:59;52195.38;;;-141.28;100.00
7022;BME280;3552;42.664;23.406;2022-12-16T11:21:45;52364.25;;;-141.28;100.00
7022;BME280;3552;42.664;23.406;2022-12-16T11:24:29;52281.78;;;-141.28;100.00
7022;BME280;3552;42.664;23.406;2022-12-16T11:27:28;52242.50;;;-141.28;100.00
7022;BME280;3552;42.664;23.406;2022-12-16T11:30:16;52093.25;;;-141.28;100.00
7022;BME280;3552;42.664;23.406;2022-12-16T11:33:11;52071.66;;;-141.28;100.00
7022;BME280;3552;42.664;23.406;2022-12-16T11:36:05;51928.28;;;-141.28;100.00
7022;BME280;3552;42.664;23.406;2022-12-16T11:38:51;51841.88;;;-141.28;100.00
7022;BME280;3552;42.664;23.406;2022-12-16T11:41:38;51657.31;;;-141.28;100.00
7022;BME280;3552;42.664;23.406;2022-12-16T11:44:27;51504.16;;;-141.28;100.00
7022;BME280;3552;42.664;23.406;2022-12-16T11:47:21;51374.56;;;-141.28;100.00
7022;BME280;3552;42.664;23.406;2022-12-16T11:50:13;51007.44;;;-141.28;100.00
7022;BME280;3552;42.664;23.406;2022-12-16T11:52:59;51492.38;;;-141.28;100.00
7022;BME280;3552;42.664;23.406;2022-12-16T11:55:44;51582.69;;;-141.28;100.00
7022;BME280;3552;42.664;23.406;2022-12-16T11:58:38;51696.59;;;-141.28;100.00
7022;BME280;3552;42.664;23.406;2022-12-16T12:01:27;51657.31;;;-141.28;100.00
7022;BME280;3552;42.664;23.406;2022-12-16T12:04:13;51457.03;;;-141.28;100.00
7022;BME280;3552;42.664;23.406;2022-12-16T12:07:24;51472.75;;;-141.28;100.00
7022;BME280;3552;42.664;23.406;2022-12-16T12:10:22;51480.59;;;-141.28;100.00
7022;BME280;3552;42.664;23.406;2022-12-16T12:13:14;51366.72;;;-141.28;100.00
7022;BME280;3552;42.664;23.406;2022-12-16T12:16:07;51084.00;;;-141.28;100.00
7022;BME280;3552;42.664;23.406;2022-12-16T12:19:00;50815.06;;;-141.28;100.00
7022;BME280;3552;42.664;23.406;2022-12-16T12:21:50;50416.56;;;-141.28;100.00
7022;BME280;3552;42.664;23.406;2022-12-16T12:24:41;50349.84;;;-141.28;100.00
7022;BME280;3552;42.664;23.406;2022-12-16T12:27:33;50618.75;;;-141.28;100.00
7022;BME280;3552;42.664;23.406;2022-12-16T12:30:20;50408.72;;;-141.28;100.00
7022;BME280;3552;42.664;23.406;2022-12-16T12:33:19;50424.44;;;-141.28;100.00
7022;BME280;3552;42.664;23.406;2022-12-16T12:36:11;50420.50;;;-141.28;100.00
7022;BME280;3552;42.664;23.406;2022-12-16T12:39:03;50499.00;;;-141.28;100.00
7022;BME280;3552;42.664;23.406;2022-12-16T12:42:02;50463.69;;;-141.28;100.00
7022;BME280;3552;42.664;23.406;2022-12-16T12:44:59;50228.16;;;-141.28;100.00
7022;BME280;3552;42.664;23.406;2022-12-16T12:47:50;50463.69;;;-141.28;100.00
7022;BME280;3552;42.664;23.406;2022-12-16T12:50:43;50538.28;;;-141.28;100.00
7022;BME280;3552;42.664;23.406;2022-12-16T12:53:42;50098.63;;;-141.28;100.00
7022;BME280;3552;42.664;23.406;2022-12-16T12:56:35;50497.06;;;-141.28;100.00
7022;BME280;3552;42.664;23.406;2022-12-16T12:59:27;50334.13;;;-141.28;100.00
7022;BME280;3552;42.664;23.406;2022-12-16T13:02:16;50024.03;;;-141.28;100.00
7022;BME280;3552;42.664;23.406;2022-12-16T13:05:10;49684.53;;;-141.28;100.00
7022;BME280;3552;42.664;23.406;2022-12-16T13:08:39;49219.47;;;-141.28;100.00
7022;BME280;3552;42.664;23.406;2022-12-16T13:11:24;49107.63;;;-141.28;100.00
7022;BME280;3552;42.664;23.406;2022-12-16T13:21:43;48789.78;;;-141.28;100.00
7022;BME280;3552;42.664;23.406;2022-12-16T13:24:34;48809.41;;;-141.28;99.99
7022;BME280;3552;42.664;23.406;2022-12-16T13:27:22;48885.91;;;-141.28;100.00
7022;BME280;3552;42.664;23.406;2022-12-16T13:30:19;48870.22;;;-141.28;97.60
7022;BME280;3552;42.664;23.406;2022-12-16T13:33:07;48950.66;;;-141.28;100.00
7022;BME280;3552;42.664;23.406;2022-12-16T13:36:06;48940.84;;;-141.28;100.00
7022;BME280;3552;42.664;23.406;2022-12-16T13:38:54;49513.78;;;-141.28;100.00
7022;BME280;3552;42.664;23.406;2022-12-16T13:41:57;49086.03;;;-141.28;100.00
7022;BME280;3552;42.664;23.406;2022-12-16T13:44:57;49091.91;;;-141.28;100.00
7022;BME280;3552;42.664;23.406;2022-12-16T13:47:58;49256.75;;;-141.28;100.00
7022;BME280;3552;42.664;23.406;2022-12-16T13:50:46;49278.31;;;-141.28;100.00
7022;BME280;3552;42.664;23.406;2022-12-16T13:53:32;49286.16;;;-141.28;100.00
7022;BME280;3552;42.664;23.406;2022-12-16T13:56:22;49949.44;;;-141.28;100.00
7022;BME280;3552;42.664;23.406;2022-12-16T13:59:14;50155.53;;;-141.28;100.00
7022;BME280;3552;42.664;23.406;2022-12-16T14:02:18;50444.06;;;-141.28;100.00
7022;BME280;3552;42.664;23.406;2022-12-16T14:05:15;50196.75;;;-141.28;100.00
7022;BME280;3552;42.664;23.406;2022-12-16T14:08:13;50495.09;;;-141.28;100.00